Portada
METAR-TAF:

METAR-TAF

Aeroports :

Ranong, Tailàndia

latitud: 09-59N, longitud: 098-37E, altitud: 7 m

Observació

L'informe es va fer fa 26 minuts, a les 07:00 UTC
Vent 7 kt del Est amb ràfegues de 17 kt, variant entre Nord i Sud-Est
Temperatura 31°C
Humitat 63%
Pressió 1009 hPa
Visibilitat 10 km o més
Cel ennuvolat a una alçada de 2000 ft

METAR: VTSR 290700Z 09007G17KT 360V130 9999 BKN020 31/23 Q1009 NOSIG

Hora: 14:26 (07:26 UTC)

Pronòstic

L'informe es va fer fa 2 hores i 26 minuts, a les 05:00 UTC
Pronòstic vàlid del 29 a les 06 UTC al 30 a les 06 UTC
Vent 8 kt del Est
Visibilitat 10 km o més
Núvols disperses a una alçada de 2000 ft
Evolucionant progressivament
l' 29 a les 14 UTC al 29 a les 16 UTC
Vent kt del Nord
Evolucionant progressivament
l' 30 a les 02 UTC al 30 a les 04 UTC
Vent 6 kt del Est

TAF: VTSR 290500Z 2906/3006 08008KT 9999 SCT020 BECMG 2914/2916 00000KT BECMG 3002/3004 08006KT

Observacions i pronòstics meteorològics de més de 4000 aeroports (METAR i TAF).

Les estacions disponibles són els punts grocs i vermells al mapa.

Posi el ratolí al punt desitjat per veure el nom de l'estació.

Feu clic per veure les observacions i els pronòstics meteorològics.

Per canviar el mapa: feu clic els botons verds amb una creu de color negre per apropar; al botó verd amb un guió per allunyar la imatge; o en les fletxes verdes per a mapes adjacents.


METAR-TAF: